createdAt,value
2022-08-27T05:02:41.131Z,77.70
2022-08-27T05:07:44.752Z,77.60
2022-08-27T05:12:50.061Z,77.70
2022-08-27T05:17:55.132Z,77.80
2022-08-27T05:22:59.619Z,77.90
2022-08-27T05:28:03.750Z,78.10
2022-08-27T05:33:10.330Z,78.20
2022-08-27T05:38:14.798Z,78.30
2022-08-27T05:43:19.755Z,78.50
2022-08-27T05:48:25.021Z,78.70
2022-08-27T05:53:28.662Z,78.70
2022-08-27T05:58:50.113Z,78.60
2022-08-27T06:03:55.404Z,78.60
2022-08-27T06:08:59.081Z,78.50
2022-08-27T06:14:02.875Z,78.30
2022-08-27T06:19:12.163Z,78.60
2022-08-27T06:24:15.882Z,78.60
2022-08-27T06:29:19.605Z,78.30
2022-08-27T06:34:24.705Z,78.40
2022-08-27T06:39:28.508Z,78.30
2022-08-27T06:44:35.301Z,78.20
2022-08-27T06:49:43.807Z,78.40
2022-08-27T06:54:50.456Z,78.50
2022-08-27T06:59:54.079Z,78.60
2022-08-27T07:04:59.035Z,78.40
2022-08-27T07:10:04.260Z,78.30
2022-08-27T07:15:09.017Z,78.40
2022-08-27T07:20:14.359Z,78.40
2022-08-27T07:25:20.490Z,78.20
2022-08-27T07:30:24.197Z,77.70
2022-08-27T07:35:29.222Z,77.60
2022-08-27T07:40:32.961Z,77.60
2022-08-27T07:45:44.443Z,77.60
2022-08-27T07:50:49.523Z,77.50
2022-08-27T07:55:54.408Z,77.40
2022-08-27T08:00:58.208Z,77.30
2022-08-27T08:06:07.232Z,77.10
2022-08-27T08:11:12.344Z,76.90
2022-08-27T08:16:16.361Z,76.70
2022-08-27T08:21:21.540Z,76.40
2022-08-27T08:26:25.149Z,76.10
2022-08-27T08:31:28.864Z,75.60
2022-08-27T08:36:34.113Z,75.20
2022-08-27T08:41:42.532Z,74.80
2022-08-27T08:46:50.533Z,74.40
2022-08-27T08:51:57.584Z,74.00
2022-08-27T08:57:06.674Z,73.40
2022-08-27T09:02:14.596Z,72.30
2022-08-27T09:07:31.445Z,70.50
2022-08-27T09:12:35.155Z,68.70
2022-08-27T09:17:40.288Z,67.00
2022-08-27T09:22:54.484Z,65.60
2022-08-27T09:28:00.640Z,64.40
2022-08-27T09:33:05.648Z,63.20
2022-08-27T09:38:11.519Z,61.90
2022-08-27T09:43:24.490Z,60.40
2022-08-27T09:48:31.149Z,59.20
2022-08-27T09:53:44.300Z,58.00
2022-08-27T09:58:51.721Z,56.90
2022-08-27T10:04:06.798Z,55.80
2022-08-27T10:09:18.246Z,54.80
2022-08-27T10:14:28.816Z,54.30
2022-08-27T10:19:48.710Z,53.30
2022-08-27T10:25:06.105Z,51.90
2022-08-27T10:30:12.953Z,50.90
2022-08-27T10:35:20.810Z,50.50
2022-08-27T10:40:32.258Z,50.00
2022-08-27T10:45:46.842Z,49.70
2022-08-27T10:50:54.681Z,48.90
2022-08-27T10:56:13.916Z,48.30
2022-08-27T11:01:23.484Z,48.00
2022-08-27T11:06:30.157Z,47.50
2022-08-27T11:17:09.846Z,45.20
2022-08-27T11:22:24.145Z,44.90
2022-08-27T11:27:33.880Z,44.10
2022-08-27T11:32:49.294Z,43.30
2022-08-27T11:38:43.859Z,42.00
2022-08-27T11:43:49.022Z,40.80
2022-08-27T11:48:59.358Z,40.80
2022-08-27T11:54:06.759Z,40.30
2022-08-27T11:59:20.323Z,40.00
2022-08-27T12:04:35.319Z,39.40
2022-08-27T12:09:56.054Z,39.30
2022-08-27T12:15:07.082Z,38.30
2022-08-27T12:20:22.389Z,38.40
2022-08-27T12:25:26.706Z,37.80
2022-08-27T12:30:35.493Z,37.50
2022-08-27T12:35:45.982Z,37.10
2022-08-27T12:40:52.709Z,36.80
2022-08-27T12:46:01.548Z,36.70
2022-08-27T12:51:09.779Z,36.40
2022-08-27T12:56:57.741Z,36.10
2022-08-27T13:02:19.545Z,35.50
2022-08-27T13:07:33.056Z,35.30
2022-08-27T13:12:43.045Z,35.40
2022-08-27T13:17:48.227Z,35.30
2022-08-27T13:22:53.197Z,35.40
2022-08-27T13:28:03.334Z,35.30
2022-08-27T13:33:13.081Z,35.00
2022-08-27T13:38:17.891Z,34.70
2022-08-27T13:43:27.819Z,34.10
2022-08-27T13:48:40.900Z,33.90
2022-08-27T13:54:06.030Z,33.40
2022-08-27T13:59:12.508Z,33.40
2022-08-27T14:04:25.291Z,33.20
2022-08-27T14:09:31.575Z,32.80
2022-08-27T14:14:40.442Z,32.90
2022-08-27T14:19:45.633Z,32.60
2022-08-27T14:24:49.246Z,32.40
2022-08-27T14:29:52.831Z,32.10
2022-08-27T14:34:58.170Z,32.20
2022-08-27T14:40:02.241Z,32.00
2022-08-27T14:45:07.012Z,32.10
2022-08-27T14:50:14.372Z,32.60
2022-08-27T14:55:18.736Z,32.90
2022-08-27T15:00:22.843Z,33.20
2022-08-27T15:05:28.488Z,33.60
2022-08-27T15:10:32.484Z,33.70
2022-08-27T15:15:36.167Z,34.00
2022-08-27T15:20:42.295Z,34.20
2022-08-27T15:25:46.752Z,34.50
2022-08-27T15:30:50.750Z,34.80
2022-08-27T15:35:55.805Z,34.90
2022-08-27T15:40:59.486Z,35.10
2022-08-27T15:46:03.195Z,35.30
2022-08-27T15:51:11.381Z,35.50
2022-08-27T15:56:14.942Z,35.70
2022-08-27T16:01:28.651Z,36.00
2022-08-27T16:06:34.945Z,36.30
2022-08-27T16:11:38.497Z,36.50
2022-08-27T16:16:44.427Z,37.30
2022-08-27T16:21:51.057Z,37.00
2022-08-27T16:26:54.736Z,37.20
2022-08-27T16:32:01.316Z,37.50
2022-08-27T16:37:06.665Z,37.60
2022-08-27T16:42:11.088Z,37.80
2022-08-27T16:47:14.781Z,38.10
2022-08-27T16:52:23.599Z,38.40
2022-08-27T16:57:27.177Z,38.70
2022-08-27T17:02:35.063Z,38.90
2022-08-27T17:07:40.225Z,39.20
2022-08-27T17:12:48.632Z,39.50
2022-08-27T17:17:52.676Z,39.70
2022-08-27T17:22:58.355Z,39.90
2022-08-27T17:28:02.019Z,40.00
2022-08-27T17:33:05.844Z,40.00
2022-08-27T17:38:10.889Z,40.20
2022-08-27T17:43:14.828Z,40.40
2022-08-27T17:48:26.823Z,40.70
2022-08-27T17:53:31.976Z,40.90
2022-08-27T17:58:35.636Z,41.20
2022-08-27T18:03:45.680Z,41.30
2022-08-27T18:08:53.039Z,41.60
2022-08-27T18:14:02.698Z,41.90
2022-08-27T18:19:08.735Z,42.10
2022-08-27T18:24:13.757Z,42.20
2022-08-27T18:29:17.344Z,42.60
2022-08-27T18:34:21.236Z,42.90
2022-08-27T18:39:26.272Z,43.20
2022-08-27T18:44:30.135Z,43.80
2022-08-27T18:49:33.952Z,44.10
2022-08-27T18:54:39.185Z,44.40
2022-08-27T18:59:42.824Z,44.70
2022-08-27T19:04:49.942Z,45.00
2022-08-27T19:09:54.871Z,45.40
2022-08-27T19:14:58.441Z,46.10
2022-08-27T19:20:03.425Z,46.80
2022-08-27T19:25:09.080Z,47.10
2022-08-27T19:30:14.790Z,47.20
2022-08-27T19:35:18.521Z,47.80
2022-08-27T19:40:23.711Z,48.30
2022-08-27T19:45:27.428Z,48.90
2022-08-27T19:50:31.065Z,49.40
2022-08-27T19:55:36.733Z,49.90
2022-08-27T20:00:40.872Z,50.40
2022-08-27T20:05:53.584Z,50.80
2022-08-27T20:10:58.763Z,51.40
2022-08-27T20:16:02.795Z,51.70
2022-08-27T20:21:06.659Z,52.20
2022-08-27T20:26:11.570Z,52.60
2022-08-27T20:31:15.437Z,53.00
2022-08-27T20:36:19.663Z,53.40
2022-08-27T20:41:24.935Z,53.60
2022-08-27T20:46:31.285Z,54.00
2022-08-27T20:52:02.131Z,54.30
2022-08-27T20:57:00.340Z,54.60
2022-08-27T21:02:09.212Z,54.60
2022-08-27T21:07:13.172Z,54.60
2022-08-27T21:12:22.571Z,54.50
2022-08-27T21:17:28.662Z,54.30
2022-08-27T21:22:32.452Z,54.20
2022-08-27T21:27:37.667Z,54.20
2022-08-27T21:32:41.715Z,54.20
2022-08-27T21:37:45.273Z,54.30
2022-08-27T21:42:50.241Z,54.20
2022-08-27T21:47:54.209Z,54.10
2022-08-27T21:52:57.750Z,54.10
2022-08-27T21:58:02.682Z,54.20
2022-08-27T22:03:10.261Z,54.20
2022-08-27T22:08:16.302Z,54.40
2022-08-27T22:13:21.916Z,54.40
2022-08-27T22:18:25.565Z,54.40
2022-08-27T22:23:31.986Z,54.50
2022-08-27T22:28:36.975Z,54.80
